createdAt,value
2022-09-20T00:04:21.882Z,16.77
2022-09-20T00:09:24.298Z,16.71
2022-09-20T00:14:26.729Z,16.79
2022-09-20T00:19:29.139Z,16.88
2022-09-20T00:24:31.601Z,16.63
2022-09-20T00:29:34.019Z,15.14
2022-09-20T00:34:39.412Z,15.98
2022-09-20T00:39:41.892Z,16.36
2022-09-20T00:44:44.358Z,16.49
2022-09-20T00:49:46.837Z,16.58
2022-09-20T00:54:49.325Z,16.75
2022-09-20T00:59:52.692Z,16.79
2022-09-20T01:04:57.549Z,16.90
2022-09-20T01:09:59.956Z,16.92
2022-09-20T01:15:04.442Z,15.67
2022-09-20T01:20:06.933Z,14.83
2022-09-20T01:25:14.679Z,15.85
2022-09-20T01:30:20.012Z,16.22
2022-09-20T01:35:24.080Z,16.40
2022-09-20T01:40:32.067Z,16.54
2022-09-20T01:45:34.650Z,16.50
2022-09-20T01:50:47.200Z,16.59
2022-09-20T01:56:02.696Z,16.64
2022-09-20T02:01:08.105Z,16.70
2022-09-20T02:06:18.468Z,16.82
2022-09-20T02:11:23.093Z,16.82
2022-09-20T02:16:28.552Z,16.92
2022-09-20T02:21:33.919Z,15.78
2022-09-20T02:26:39.225Z,14.43
2022-09-20T02:31:44.654Z,15.69
2022-09-20T02:36:56.955Z,16.31
2022-09-20T02:42:04.134Z,16.67
2022-09-20T02:47:09.435Z,16.95
2022-09-20T02:52:14.739Z,16.21
2022-09-20T02:57:25.594Z,13.98
2022-09-20T03:02:31.390Z,14.42
2022-09-20T03:07:36.747Z,15.70
2022-09-20T03:12:42.092Z,16.29
2022-09-20T03:17:49.861Z,16.53
2022-09-20T03:22:55.268Z,16.77
2022-09-20T03:28:00.583Z,16.90
2022-09-20T03:33:05.956Z,16.05
2022-09-20T03:38:14.589Z,14.39
2022-09-20T03:43:17.979Z,15.60
2022-09-20T03:48:32.480Z,16.26
2022-09-20T03:53:39.904Z,16.51
2022-09-20T03:58:52.157Z,16.26
2022-09-20T04:03:54.568Z,14.06
2022-09-20T04:08:59.992Z,14.57
2022-09-20T04:14:09.319Z,15.57
2022-09-20T04:19:16.533Z,15.99
2022-09-20T04:24:22.640Z,16.18
2022-09-20T04:29:28.029Z,16.47
2022-09-20T04:34:43.871Z,15.31
2022-09-20T04:39:49.209Z,13.75
2022-09-20T04:44:55.104Z,15.25
2022-09-20T04:50:00.442Z,16.17
2022-09-20T04:55:05.854Z,16.56
2022-09-20T05:00:13.998Z,15.85
2022-09-20T05:05:16.665Z,13.69
2022-09-20T05:10:24.487Z,13.91
2022-09-20T05:15:36.245Z,15.40
2022-09-20T05:20:41.573Z,16.00
2022-09-20T05:25:46.906Z,16.41
2022-09-20T05:30:50.877Z,16.48
2022-09-20T05:35:56.312Z,16.53
2022-09-20T05:41:02.145Z,14.58
2022-09-20T05:46:07.552Z,14.92
2022-09-20T05:51:30.398Z,16.08
2022-09-20T05:56:41.941Z,16.53
2022-09-20T06:01:46.110Z,14.89
2022-09-20T06:06:50.846Z,14.71
2022-09-20T06:11:53.237Z,16.14
2022-09-20T06:16:58.537Z,16.85
2022-09-20T06:22:04.469Z,15.47
2022-09-20T06:27:18.857Z,15.98
2022-09-20T06:32:21.342Z,16.91
2022-09-20T06:37:29.751Z,16.91
2022-09-20T06:42:32.202Z,15.32
2022-09-20T06:47:38.526Z,14.62
2022-09-20T06:52:41.930Z,16.25
2022-09-20T06:57:44.531Z,16.93
2022-09-20T07:02:48.815Z,16.39
2022-09-20T07:07:56.193Z,14.86
2022-09-20T07:13:00.386Z,16.09
2022-09-20T07:18:02.942Z,17.06
2022-09-20T07:23:05.377Z,16.62
2022-09-20T07:28:07.814Z,16.38
2022-09-20T07:33:12.056Z,17.76
2022-09-20T07:38:15.349Z,17.08
2022-09-20T07:43:17.763Z,16.81
2022-09-20T07:48:24.922Z,18.21
2022-09-20T07:53:27.378Z,17.39
2022-09-20T07:58:30.622Z,16.87
2022-09-20T08:03:33.606Z,18.22
2022-09-20T08:08:37.193Z,16.95
2022-09-20T08:19:03.036Z,18.22
2022-09-20T08:24:05.572Z,16.68
2022-09-20T08:29:08.455Z,17.81
2022-09-20T08:34:12.069Z,18.37
2022-09-20T08:44:47.143Z,17.39
2022-09-20T08:49:56.992Z,18.69
2022-09-20T08:55:01.293Z,17.65
2022-09-20T09:00:05.693Z,18.14
2022-09-20T09:05:28.698Z,17.04
2022-09-20T09:10:42.519Z,18.01
2022-09-20T09:15:50.382Z,17.12
2022-09-20T09:20:52.889Z,18.59
2022-09-20T09:25:55.897Z,17.56
2022-09-20T09:31:01.272Z,16.50
2022-09-20T09:36:03.648Z,16.13
2022-09-20T09:41:08.861Z,17.70
2022-09-20T09:46:14.687Z,17.65
2022-09-20T09:51:18.813Z,17.20
2022-09-20T09:56:23.626Z,17.01
2022-09-20T10:01:32.531Z,16.80
2022-09-20T10:06:42.009Z,17.31
2022-09-20T10:11:47.452Z,17.98
2022-09-20T10:17:09.842Z,17.24
2022-09-20T10:22:34.459Z,17.02
2022-09-20T10:27:45.920Z,17.20
2022-09-20T10:32:59.421Z,17.55
2022-09-20T10:38:03.023Z,17.54
2022-09-20T10:43:14.624Z,17.55
2022-09-20T10:48:18.352Z,17.65
2022-09-20T10:53:25.564Z,17.35
2022-09-20T10:58:31.177Z,16.62
2022-09-20T11:03:36.537Z,16.17
2022-09-20T11:08:40.620Z,15.90
2022-09-20T11:13:47.417Z,15.88
2022-09-20T11:18:55.368Z,17.10
2022-09-20T11:23:57.901Z,16.80
2022-09-20T11:29:11.466Z,16.69
2022-09-20T11:34:14.050Z,16.68
2022-09-20T11:39:19.406Z,16.81
2022-09-20T11:44:21.947Z,16.75
2022-09-20T11:49:30.160Z,16.47
2022-09-20T11:54:41.655Z,17.21
2022-09-20T11:59:50.955Z,17.85
2022-09-20T12:04:53.471Z,17.15
2022-09-20T12:09:58.889Z,16.43
2022-09-20T12:15:02.759Z,16.19
2022-09-20T12:20:25.117Z,16.25
2022-09-20T12:25:30.457Z,16.46
2022-09-20T12:30:33.819Z,16.69
2022-09-20T12:35:36.221Z,16.71
2022-09-20T12:40:57.640Z,16.57
2022-09-20T12:46:05.386Z,16.51
2022-09-20T12:51:15.904Z,16.54
2022-09-20T12:56:25.368Z,16.61
2022-09-20T13:01:29.151Z,16.64
2022-09-20T13:06:31.586Z,16.81
2022-09-20T13:11:39.144Z,16.87
2022-09-20T13:16:41.618Z,16.96
2022-09-20T13:21:51.197Z,16.98
2022-09-20T13:26:55.737Z,16.96
2022-09-20T13:32:50.201Z,17.00
2022-09-20T13:37:52.592Z,17.17
2022-09-20T13:43:21.995Z,17.48
2022-09-20T13:48:25.608Z,17.26
2022-09-20T13:53:41.063Z,16.89
2022-09-20T13:58:44.327Z,16.60
2022-09-20T14:03:47.298Z,16.24
2022-09-20T14:08:51.789Z,15.89
2022-09-20T14:13:55.463Z,17.69
2022-09-20T14:18:58.738Z,17.64
2022-09-20T14:24:04.881Z,16.84
2022-09-20T14:29:10.246Z,16.46
2022-09-20T14:34:12.871Z,16.02
2022-09-20T14:39:18.871Z,17.50
2022-09-20T14:44:25.683Z,17.68
2022-09-20T14:49:29.060Z,16.49
2022-09-20T14:54:33.546Z,18.06
2022-09-20T14:59:37.134Z,18.49
2022-09-20T15:04:40.504Z,17.59
2022-09-20T15:09:43.195Z,17.19
2022-09-20T15:14:46.118Z,17.05
2022-09-20T15:19:49.375Z,16.93
2022-09-20T15:24:51.783Z,18.66
2022-09-20T15:29:54.187Z,18.97
2022-09-20T15:34:56.642Z,18.60
2022-09-20T15:39:59.253Z,18.50
2022-09-20T15:45:01.717Z,17.65
2022-09-20T15:50:06.658Z,16.68
2022-09-20T15:55:09.233Z,18.03
2022-09-20T16:00:11.993Z,17.96
2022-09-20T16:05:14.707Z,16.76
2022-09-20T16:10:17.182Z,18.16
2022-09-20T16:15:19.562Z,18.14
2022-09-20T16:20:23.129Z,17.19
2022-09-20T16:25:25.522Z,18.29
2022-09-20T16:30:27.959Z,18.20
2022-09-20T16:35:30.347Z,16.54
2022-09-20T16:40:32.769Z,17.56
2022-09-20T16:45:35.471Z,18.13
2022-09-20T16:50:38.058Z,16.45
2022-09-20T16:55:43.735Z,17.20
2022-09-20T17:00:46.257Z,17.96
2022-09-20T17:05:48.722Z,17.88
2022-09-20T17:10:51.776Z,16.21
2022-09-20T17:15:57.160Z,17.08
2022-09-20T17:21:02.692Z,17.86
2022-09-20T17:26:06.884Z,17.87
2022-09-20T17:31:11.785Z,15.87
2022-09-20T17:36:15.856Z,16.52
2022-09-20T17:41:19.406Z,17.41
2022-09-20T17:46:25.545Z,17.55
2022-09-20T17:51:28.064Z,15.99
2022-09-20T17:56:31.178Z,16.50
2022-09-20T18:01:34.952Z,17.22
2022-09-20T18:06:38.801Z,17.45
2022-09-20T18:11:45.214Z,17.44
2022-09-20T18:16:47.666Z,15.60
2022-09-20T18:21:50.557Z,15.68
2022-09-20T18:26:52.971Z,16.83
2022-09-20T18:31:56.704Z,17.34
2022-09-20T18:37:00.213Z,17.62
2022-09-20T18:42:03.425Z,16.25
2022-09-20T18:47:06.445Z,16.62
2022-09-20T18:52:10.732Z,17.36
2022-09-20T18:57:13.414Z,17.58
2022-09-20T19:02:26.738Z,17.64
2022-09-20T19:07:31.148Z,17.65
2022-09-20T19:12:43.395Z,17.62
2022-09-20T19:17:50.381Z,16.71
2022-09-20T19:22:52.745Z,15.67
2022-09-20T19:27:55.229Z,16.74
2022-09-20T19:32:57.721Z,17.19
2022-09-20T19:38:05.061Z,17.43
2022-09-20T19:43:14.347Z,17.73
2022-09-20T19:48:21.784Z,17.86
2022-09-20T19:53:28.024Z,17.89
2022-09-20T19:58:30.915Z,17.89
2022-09-20T20:03:33.767Z,16.44
2022-09-20T20:08:40.164Z,16.62
2022-09-20T20:13:45.468Z,17.25
2022-09-20T20:18:50.912Z,17.43
2022-09-20T20:24:13.313Z,17.69
2022-09-20T20:29:15.737Z,17.78
2022-09-20T20:34:18.219Z,17.82
2022-09-20T20:39:20.620Z,16.78
2022-09-20T20:44:23.150Z,16.27
2022-09-20T20:49:25.780Z,17.17
2022-09-20T20:54:28.361Z,17.45
2022-09-20T20:59:30.992Z,17.58
2022-09-20T21:04:33.993Z,17.68
2022-09-20T21:09:36.923Z,17.69
2022-09-20T21:14:39.342Z,17.72
2022-09-20T21:19:41.982Z,17.82
2022-09-20T21:24:44.374Z,16.31
2022-09-20T21:29:46.800Z,16.49
2022-09-20T21:34:49.205Z,17.15
2022-09-20T21:39:51.618Z,17.44
2022-09-20T21:44:54.087Z,17.47
2022-09-20T21:49:56.465Z,17.62
2022-09-20T21:54:58.969Z,16.34
2022-09-20T22:00:01.762Z,15.68
2022-09-20T22:05:04.586Z,16.62
2022-09-20T22:10:07.235Z,17.05
2022-09-20T22:15:10.389Z,17.20
2022-09-20T22:20:12.809Z,17.25
2022-09-20T22:31:46.400Z,17.35
2022-09-20T22:36:48.954Z,16.59
2022-09-20T22:41:51.873Z,15.55
2022-09-20T22:46:54.251Z,16.46
2022-09-20T22:51:56.676Z,16.83
2022-09-20T22:56:59.139Z,17.07
2022-09-20T23:02:01.757Z,17.25
2022-09-20T23:07:04.794Z,17.26
2022-09-20T23:12:07.228Z,17.36
2022-09-20T23:17:09.643Z,17.40
2022-09-20T23:22:12.018Z,17.38
2022-09-20T23:27:15.685Z,17.44
2022-09-20T23:32:18.067Z,17.43
2022-09-20T23:37:20.479Z,17.32
2022-09-20T23:42:22.898Z,15.66
2022-09-20T23:47:25.349Z,16.25
2022-09-20T23:52:27.760Z,16.75
2022-09-20T23:57:30.260Z,16.94
